Home > Products > Valid Products > MTR

000
SAUS45 KPIH 282252
MTRSNT
METAR KSNT 282251Z AUTO 07/M14 A2975 RMK AO1 PK WND 27027/2230
SLP017 T00721139





000
SAUS45 KPIH 282152
MTRSNT
METAR KSNT 282151Z AUTO 24010G18KT 08/M18 A2977 RMK AO1 SLP017
T00831178





000
SAUS45 KPIH 282052
MTRSNT
METAR KSNT 282051Z AUTO 26006G14KT 08/M17 A2978 RMK AO1 SLP034
T00831167 56030





000
SAUS45 KPIH 281952
MTRSNT
METAR KSNT 281951Z AUTO 17003KT 08/M08 A2979 RMK AO1 SLP040
T00831078





000
SAUS45 KPIH 281852
MTRSNT
METAR KSNT 281851Z AUTO 15007G14KT 110V170 07/M07 A2984 RMK AO1
SLP055 T00671072





000
SAUS45 KPIH 281752
MTRSNT
METAR KSNT 281751Z AUTO 19011G15KT 07/M08 A2988 RMK AO1 SLP064
T00671083 10083 20039 56015





000
SAUS45 KPIH 281652
MTRSNT
METAR KSNT 281651Z AUTO 14004KT 06/M06 A2990 RMK AO1 SLP082
T00611056





000
SAUS45 KPIH 281552
MTRSNT
METAR KSNT 281551Z AUTO 15006KT 04/M04 A2991 RMK AO1 SLP099
T00391039





000
SAUS45 KPIH 281452
MTRSNT
METAR KSNT 281451Z AUTO 14007KT 05/M06 A2994 RMK AO1 SLP099
T00501056 53002





000
SAUS45 KPIH 281352
MTRSNT
METAR KSNT 281351Z AUTO 25017G28KT 07/M09 A2994 RMK AO1 PK WND
31028/1348 SLP094 T00721094





000
SAUS45 KPIH 281252
MTRSNT
METAR KSNT 281251Z AUTO 25010G25KT 200V270 08/M13 A2992 RMK AO1
SLP081 T00831128





000
SAUS45 KPIH 281152
MTRSNT
METAR KSNT 281151Z AUTO 19005KT 07/M10 A2993 RMK AO1 SLP086 70001
T00721100 10083 20011 56018





000
SAUS45 KPIH 281052
MTRSNT
METAR KSNT 281051Z AUTO 18005KT 07/M08 A2994 RMK AO1 SLP085
T00671083





000
SAUS45 KPIH 280952
MTRSNT
METAR KSNT 280951Z AUTO 22007G15KT 180V240 08/M08 A2997 RMK AO1
SLP095 T00831083





000
SAUS45 KPIH 280852
MTRSNT
METAR KSNT 280851Z AUTO 35005KT 02/M03 A3000 RMK AO1 SLP112
T00221028 56019





000
SAUS45 KPIH 280753
MTRSNT
METAR KSNT 280751Z AUTO 00000KT 02/M03 A3002 RMK AO1 SLP119
T00221028





000
SAUS45 KPIH 280652
MTRSNT
METAR KSNT 280651Z AUTO 26004KT 05/M03 A3004 RMK AO1 SLP125
T00501033 400941011





000
SAUS45 KPIH 280552
MTRSNT
METAR KSNT 280551Z AUTO 26007G18KT 230V290 07/M04 A3006 RMK AO1
SLP134 T00721044 10078 20000 56009





000
SAUS45 KPIH 280452
MTRSNT
METAR KSNT 280451Z AUTO VRB05KT 03/M01 A3007 RMK AO1 SLP143
T00281011





000
SAUS45 KPIH 280352
MTRSNT
METAR KSNT 280351Z AUTO VRB03KT 00/M02 A3008 RMK AO1 SLP154
T00001017





000
SAUS45 KPIH 280352
MTRSNT
METAR KSNT 280351Z AUTO VRB03KT 00/M02 A3008 RMK AO1 SLP154
T00001017





000
SAUS45 KPIH 280252
MTRSNT
METAR KSNT 280251Z AUTO 00000KT 02/00 A3010 RMK AO1 SLP147 T00220000
58013





000
SAUS45 KPIH 280152
MTRSNT
METAR KSNT 280151Z AUTO 00000KT 02/00 A3011 RMK AO1 SLP166 T00220000





000
SAUS45 KPIH 280152
MTRSNT
METAR KSNT 280151Z AUTO 00000KT 02/00 A3011 RMK AO1 SLP166 T00220000





000
SAUS45 KPIH 280052
MTRSNT
METAR KSNT 280051Z AUTO 00000KT 03/01 A3014 RMK AO1 SLP173 T00330006





000
SAUS45 KPIH 272352
MTRSNT
METAR KSNT 272351Z AUTO 13005KT 05/01 A3014 RMK AO1 SLP175 P0001
60001 T00500006 10094 20044 55006





000
SAUS45 KPIH 272252
MTRSNT
METAR KSNT 272251Z AUTO 13009KT 06/00 A3014 RMK AO1 SLP170 T00610000





000
SAUS45 KPIH 272152
MTRSNT
METAR KSNT 272151Z AUTO 16005KT 06/M01 A3017 RMK AO1 PK WND
23030/2112 SLP183 T00611011





000
SAUS45 KPIH 272052
MTRSNT
METAR KSNT 272051Z AUTO VRB05KT 09/M02 A3017 RMK AO1 SLP178
T00891022 56022





000
SAUS45 KPIH 271952
MTRSNT
METAR KSNT 271951Z AUTO 12010G19KT 09/M01 A3018 RMK AO1 SLP183
T00891006





000
SAUS45 KPIH 271852
MTRSNT
METAR KSNT 271851Z AUTO 15006G16KT 07/00 A3022 RMK AO1 SLP197
T00670000





000
SAUS45 KPIH 271752
MTRSNT
METAR KSNT 271751Z AUTO 14010G16KT 05/00 A3024 RMK AO1 SLP213
T00500000 10083 20017 51002





000
SAUS45 KPIH 271652
MTRSNT
METAR KSNT 271651Z AUTO 14007KT 06/M01 A3024 RMK AO1 SLP210
T00561006





000
SAUS45 KPIH 271552
MTRSNT
METAR KSNT 271551Z AUTO 16009KT 05/M01 A3024 RMK AO1 SLP213
T00501011





000
SAUS45 KPIH 271452
MTRSNT
METAR KSNT 271451Z AUTO 23007KT 08/M04 A3024 RMK AO1 SLP203
T00831039 53009





000
SAUS45 KPIH 271352
MTRSNT
METAR KSNT 271351Z AUTO 00000KT 03/M04 A3021 RMK AO1 SLP204
T00331044





000
SAUS45 KPIH 271252
MTRSNT
METAR KSNT 271251Z AUTO 06007KT 03/M05 A3021 RMK AO1 SLP202
T00331050





000
SAUS45 KPIH 271152
MTRSNT
METAR KSNT 271151Z AUTO 07004KT 02/M05 A3021 RMK AO1 SLP203
T00171050 10033 21011 58009





000
SAUS45 KPIH 271052
MTRSNT
METAR KSNT 271051Z AUTO 00000KT 01/M05 A3022 RMK AO1 SLP197
T00111050





000
SAUS45 KPIH 270952
MTRSNT
METAR KSNT 270951Z AUTO 00000KT 01/M05 A3024 RMK AO1 SLP200
T00061050





000
SAUS45 KPIH 270852
MTRSNT
METAR KSNT 270851Z AUTO 00000KT 00/M05 A3024 RMK AO1 SLP207
T00001050 58000





000
SAUS45 KPIH 270752
MTRSNT
METAR KSNT 270751Z AUTO 00000KT 00/M05 A3025 RMK AO1 SLP211
T00001050





000
SAUS45 KPIH 270652
MTRSNT
METAR KSNT 270651Z AUTO VRB03KT 02/M06 A3026 RMK AO1 SLP210
T00171061 400891006





000
SAUS45 KPIH 270552
MTRSNT
METAR KSNT 270551Z AUTO VRB03KT 00/M06 A3024 RMK AO1 SLP210
T00001056 10039 21006 58009





000
SAUS45 KPIH 270452
MTRSNT
METAR KSNT 270451Z AUTO 15004KT 01/M05 A3026 RMK AO1 SLP217
T00061050





000
SAUS45 KPIH 270452
MTRSNT
METAR KSNT 270451Z AUTO 15004KT 01/M05 A3026 RMK AO1 SLP217
T00061050





000
SAUS45 KPIH 270352
MTRSNT
METAR KSNT 270351Z AUTO 13005KT 00/M05 A3026 RMK AO1 SLP223
T00001050





000
SAUS45 KPIH 270352
MTRSNT
METAR KSNT 270351Z AUTO 13005KT 00/M05 A3026 RMK AO1 SLP223
T00001050





000
SAUS45 KPIH 270252
MTRSNT
METAR KSNT 270251Z AUTO 19003KT 01/M04 A3027 RMK AO1 SLP235
T00061039 58004





000
SAUS45 KPIH 270152
MTRSNT
METAR KSNT 270151Z AUTO VRB03KT 01/M03 A3028 RMK AO1 SLP227
T00111033





000
SAUS45 KPIH 270052
MTRSNT
METAR KSNT 270051Z AUTO 00000KT 01/M03 A3029 RMK AO1 SLP234
T00111033





000
SAUS45 KPIH 262352
MTRSNT
METAR KSNT 262351Z AUTO 17005KT 03/M02 A3029 RMK AO1 SLP232
T00281022 10089 20028 55004





000
SAUS45 KPIH 262252
MTRSNT
METAR KSNT 262251Z AUTO VRB03KT 06/M03 A3028 RMK AO1 SLP221
T00611033





000
SAUS45 KPIH 262152
MTRSNT
METAR KSNT 262151Z AUTO 00000KT 09/M03 A3029 RMK AO1 SLP215
T00891033





000
SAUS45 KPIH 262152
MTRSNT
METAR KSNT 262151Z AUTO 00000KT 09/M03 A3029 RMK AO1 SLP215
T00891033





000
SAUS45 KPIH 262052
MTRSNT
METAR KSNT 262051Z AUTO 00000KT 08/M02 A3030 RMK AO1 SLP222
T00781017 57010





000
SAUS45 KPIH 261952
MTRSNT
METAR KSNT 261951Z AUTO 31004KT 07/M01 A3032 RMK AO1 SLP224
T00721011





000
SAUS45 KPIH 261852
MTRSNT
METAR KSNT 261851Z AUTO 33003KT 07/M01 A3033 RMK AO1 SLP231
T00671011





000
SAUS45 KPIH 261752
MTRSNT
METAR KSNT 261751Z AUTO 33004KT 06/M01 A3034 RMK AO1 SLP238
T00611006 10061 20006 51009





000
SAUS45 KPIH 261652
MTRSNT
METAR KSNT 261651Z AUTO 31003KT 06/M01 A3033 RMK AO1 SLP238
T00561006





000
SAUS45 KPIH 261552
MTRSNT
METAR KSNT 261551Z AUTO 00000KT 04/M01 A3032 RMK AO1 SLP237
T00391006





000
SAUS45 KPIH 261452
MTRSNT
METAR KSNT 261451Z AUTO 19003KT 01/M02 A3031 RMK AO1 SLP241
T00061017 51008





000
SAUS45 KPIH 261352
MTRSNT
METAR KSNT 261351Z AUTO 00000KT 03/M01 A3030 RMK AO1 SLP227
T00331006





000
SAUS45 KPIH 261252
MTRSNT
METAR KSNT 261251Z AUTO 18005KT 03/M01 A3029 RMK AO1 SLP223
T00281006





000
SAUS45 KPIH 261152
MTRSNT
METAR KSNT 261151Z AUTO 00000KT 02/M01 A3028 RMK AO1 SLP223 70002
T00171006 10039 20011 50003





000
SAUS45 KPIH 261052
MTRSNT
METAR KSNT 261051Z AUTO 26003KT 02/M01 A3029 RMK AO1 SLP228
T00171006





000
SAUS45 KPIH 260952
MTRSNT
METAR KSNT 260951Z AUTO 15003KT 02/M01 A3027 RMK AO1 SLP224
T00171006





000
SAUS45 KPIH 260952
MTRSNT
METAR KSNT 260951Z AUTO 15003KT 02/M01 A3027 RMK AO1 SLP224
T00171006





000
SAUS45 KPIH 260852
MTRSNT
METAR KSNT 260851Z AUTO 16004KT 02/M01 A3027 RMK AO1 SLP219
T00221006 53007





000
SAUS45 KPIH 260752
MTRSNT
METAR KSNT 260751Z AUTO 18005KT 03/M01 A3026 RMK AO1 SLP215
T00331006





000
SAUS45 KPIH 260652
MTRSNT
METAR KSNT 260651Z AUTO VRB03KT 03/00 A3025 RMK AO1 SLP215 T00330000
400561039





000
SAUS45 KPIH 260552
MTRSNT
METAR KSNT 260551Z AUTO 17004KT 03/00 A3024 RMK AO1 SLP216 T00280000
10050 20022 51005





000
SAUS45 KPIH 260452
MTRSNT
METAR KSNT 260451Z AUTO 00000KT 02/00 A3024 RMK AO1 SLP216 T00220000





000
SAUS45 KPIH 260352
MTRSNT
METAR KSNT 260351Z AUTO 00000KT 02/00 A3023 RMK AO1 SLP215 T00220000





000
SAUS45 KPIH 260352
MTRSNT
METAR KSNT 260351Z AUTO 00000KT 02/00 A3023 RMK AO1 SLP215 T00220000





000
SAUS45 KPIH 260253 COR
MTRSNT
METAR KSNT 260251Z AUTO 00000KT 03/00 A3022 RMK AO1 SLP215 T00280000
53008





000
SAUS45 KPIH 260152
MTRSNT
METAR KSNT 260151Z AUTO 27003KT 04/00 A3022 RMK AO1 SLP210 T00390000





000
SAUS45 KPIH 260052
MTRSNT
METAR KSNT 260051Z AUTO VRB03KT 05/00 A3020 RMK AO1 SLP203 T00500000





000
SAUS45 KPIH 252352
MTRSNT
METAR KSNT 252351Z AUTO VRB04KT 04/00 A3020 RMK AO1 SLP202 T00440000
10056 20017 53006





    US Dept of Commerce
    National Oceanic and Atmospheric Administration
    National Weather Service
    1325 East West Highway
    Silver Spring, MD 20910
    Page Author: NWS Internet Services Team
Disclaimer
Information Quality
Credits
Glossary
Privacy Policy
Freedom of Information Act (FOIA)
About Us
Career Opportunities